Stewartsville, Ohio
Current Conditions -  °F | °C
As of 2:53 AM on Friday 19 Dec 2014 (Local Time) from KHLG Reporting Station
Overcast Overcast  
Wind Chill: 20°   Ceiling: 800
Heat Index: 27°   Visibility: 7mi
Dew Point: 23°   Wind: 6mph
Humidity: 85%   Direction: 260°W
Pressure: 30.17"   Gusts: NA
Location:  39.9375°N, 80.8976°W
Report Text: KHLG 190753Z AUTO 26005KT 7SM OVC008 M03/M05 A3017 RMK AO2 SLP233 T10281050
Loading
Personal Weather Stations






























Interactive Weather Map New forecast layout! Learn more

10-Day Weather Forecast

Advertisements
Track Severe Weather on mobile